createdAt,value
2018-04-19T00:00:52.780Z,99.99
2018-04-19T00:01:51.493Z,99.99
2018-04-19T00:02:51.659Z,99.99
2018-04-19T00:03:51.696Z,99.99
2018-04-19T00:04:51.611Z,99.99
2018-04-19T00:05:52.138Z,99.99
2018-04-19T00:06:51.883Z,99.99
2018-04-19T00:07:52.204Z,99.99
2018-04-19T00:08:52.238Z,99.99
2018-04-19T00:09:52.260Z,99.99
2018-04-19T00:10:52.301Z,99.99
2018-04-19T00:11:52.516Z,99.99
2018-04-19T00:12:52.402Z,99.99
2018-04-19T00:13:52.385Z,99.99
2018-04-19T00:14:52.253Z,99.99
2018-04-19T00:15:52.172Z,99.99
2018-04-19T00:16:52.653Z,99.99
2018-04-19T00:17:52.470Z,99.99
2018-04-19T00:18:52.719Z,99.99
2018-04-19T00:19:52.744Z,99.99
2018-04-19T00:20:53.177Z,99.99
2018-04-19T00:21:52.932Z,99.99
2018-04-19T00:22:53.251Z,99.99
2018-04-19T00:23:53.520Z,99.99
2018-04-19T00:24:53.282Z,99.99
2018-04-19T00:25:53.839Z,99.99
2018-04-19T00:26:53.853Z,99.99
2018-04-19T00:27:54.052Z,99.99
2018-04-19T00:28:54.373Z,99.99
2018-04-19T00:29:54.385Z,99.99
2018-04-19T00:30:54.682Z,99.99
2018-04-19T00:31:54.651Z,99.99
2018-04-19T00:32:54.416Z,99.99
2018-04-19T00:33:54.929Z,99.99
2018-04-19T00:34:54.979Z,99.99
2018-04-19T00:35:54.980Z,99.99
2018-04-19T00:36:55.010Z,99.99
2018-04-19T00:37:55.487Z,99.99
2018-04-19T00:38:55.495Z,99.99
2018-04-19T00:39:55.922Z,99.99
2018-04-19T00:40:56.230Z,99.99
2018-04-19T00:41:56.343Z,99.99
2018-04-19T00:42:56.291Z,99.99
2018-04-19T00:43:56.321Z,99.99
2018-04-19T00:44:56.349Z,99.99
2018-04-19T00:45:56.573Z,99.99
2018-04-19T00:46:56.845Z,99.99
2018-04-19T00:47:56.878Z,99.99
2018-04-19T00:48:56.926Z,99.99
2018-04-19T00:49:56.932Z,99.99
2018-04-19T00:50:56.973Z,99.99
2018-04-19T00:51:56.773Z,99.99
2018-04-19T00:52:57.030Z,99.99
2018-04-19T00:53:57.334Z,99.99
2018-04-19T00:54:57.630Z,99.99
2018-04-19T00:55:57.603Z,99.99
2018-04-19T00:56:57.956Z,99.99
2018-04-19T00:57:57.946Z,99.99
2018-04-19T00:58:58.169Z,99.99
2018-04-19T00:59:58.346Z,99.99
2018-04-19T01:00:58.362Z,99.99
2018-04-19T01:01:58.769Z,99.99
2018-04-19T01:02:59.010Z,99.99
2018-04-19T01:03:59.284Z,99.99
2018-04-19T01:04:59.057Z,99.99
2018-04-19T01:05:59.228Z,99.99
2018-04-19T01:06:59.607Z,99.99
2018-04-19T01:07:59.645Z,99.99
2018-04-19T01:08:59.789Z,99.99
2018-04-19T01:09:59.904Z,99.99
2018-04-19T01:11:00.130Z,99.99
2018-04-19T01:12:00.269Z,99.99
2018-04-19T01:13:00.687Z,99.99
2018-04-19T01:14:00.719Z,99.99
2018-04-19T01:15:00.470Z,99.99
2018-04-19T01:16:00.904Z,99.99
2018-04-19T01:17:01.091Z,99.99
2018-04-19T01:18:01.146Z,99.99
2018-04-19T01:19:01.191Z,99.99
2018-04-19T01:20:01.421Z,99.99
2018-04-19T01:21:01.405Z,99.99
2018-04-19T01:22:01.182Z,99.99
2018-04-19T01:23:01.443Z,99.99
2018-04-19T01:24:01.464Z,99.99
2018-04-19T01:25:01.601Z,99.99
2018-04-19T01:26:01.737Z,99.99
2018-04-19T01:27:01.997Z,99.99
2018-04-19T01:28:02.167Z,99.99
2018-04-19T01:29:02.593Z,99.99
2018-04-19T01:30:02.733Z,99.99
2018-04-19T01:31:02.698Z,99.99
2018-04-19T01:32:02.693Z,99.99
2018-04-19T01:33:02.474Z,99.99
2018-04-19T01:34:02.916Z,99.99
2018-04-19T01:35:02.975Z,99.99
2018-04-19T01:36:03.430Z,99.99
2018-04-19T01:37:03.443Z,99.99
2018-04-19T01:38:03.485Z,99.99
2018-04-19T01:39:03.380Z,99.99
2018-04-19T01:40:04.026Z,99.99
2018-04-19T01:41:03.979Z,99.99
2018-04-19T01:42:03.997Z,99.99
2018-04-19T01:43:04.144Z,99.99
2018-04-19T01:44:04.559Z,99.99
2018-04-19T01:45:04.188Z,99.99
2018-04-19T01:46:04.175Z,99.99
2018-04-19T01:47:04.755Z,99.99
2018-04-19T01:48:04.605Z,99.99
2018-04-19T01:49:04.649Z,99.99
2018-04-19T01:50:04.780Z,99.99
2018-04-19T01:51:04.709Z,99.99
2018-04-19T01:52:05.233Z,99.99
2018-04-19T01:53:05.176Z,99.99
2018-04-19T01:54:05.212Z,99.99
2018-04-19T01:55:05.666Z,99.99
2018-04-19T01:56:05.822Z,99.99
2018-04-19T01:57:06.240Z,99.99
2018-04-19T01:58:06.287Z,99.99
2018-04-19T01:59:06.241Z,99.99
2018-04-19T02:00:07.919Z,99.99
2018-04-19T02:01:06.817Z,99.99
2018-04-19T02:02:07.261Z,99.99
2018-04-19T02:03:07.015Z,99.99
2018-04-19T02:04:07.676Z,99.99
2018-04-19T02:05:07.853Z,99.99
2018-04-19T02:06:07.879Z,99.99
2018-04-19T02:07:07.925Z,99.99
2018-04-19T02:08:07.934Z,99.99
2018-04-19T02:09:08.079Z,99.99
2018-04-19T02:10:08.768Z,99.99
2018-04-19T02:11:09.152Z,99.99
2018-04-19T02:12:09.204Z,99.99
2018-04-19T02:13:09.378Z,99.99
2018-04-19T02:14:09.776Z,99.99
2018-04-19T02:15:09.916Z,99.99
2018-04-19T02:16:10.225Z,99.99
2018-04-19T02:17:10.374Z,99.99
2018-04-19T02:18:10.396Z,99.99
2018-04-19T02:19:10.606Z,99.99
2018-04-19T02:20:10.884Z,99.99
2018-04-19T02:21:11.266Z,99.99
2018-04-19T02:22:11.666Z,99.99
2018-04-19T02:23:11.679Z,99.99
2018-04-19T02:24:11.723Z,99.99
2018-04-19T02:25:12.092Z,99.99
2018-04-19T02:26:12.118Z,99.99
2018-04-19T02:27:12.233Z,99.99
2018-04-19T02:28:12.562Z,99.99
2018-04-19T02:29:12.975Z,99.99
2018-04-19T02:30:12.987Z,99.99
2018-04-19T02:31:13.042Z,99.99
2018-04-19T02:32:13.061Z,99.99
2018-04-19T02:33:13.225Z,99.99
2018-04-19T02:34:12.979Z,99.99
2018-04-19T02:35:13.559Z,99.99
2018-04-19T02:36:13.416Z,99.99
2018-04-19T02:37:13.440Z,99.99
2018-04-19T02:38:13.473Z,99.99
2018-04-19T02:39:13.225Z,99.99
2018-04-19T02:40:13.251Z,99.99
2018-04-19T02:41:13.954Z,99.99
2018-04-19T02:42:13.402Z,99.99
2018-04-19T02:43:13.883Z,99.99
2018-04-19T02:44:14.064Z,99.99
2018-04-19T02:45:14.032Z,99.99
2018-04-19T02:46:13.904Z,99.99
2018-04-19T02:47:14.723Z,99.99
2018-04-19T02:48:14.623Z,99.99
2018-04-19T02:49:14.638Z,99.99
2018-04-19T02:50:14.681Z,99.99
2018-04-19T02:51:14.721Z,99.99
2018-04-19T02:52:15.093Z,99.99
2018-04-19T02:53:15.450Z,99.99
2018-04-19T02:54:15.513Z,99.99
2018-04-19T02:55:15.898Z,99.99
2018-04-19T02:56:16.055Z,99.99
2018-04-19T02:57:15.808Z,99.99
2018-04-19T02:58:16.241Z,99.99
2018-04-19T02:59:16.260Z,99.99
2018-04-19T03:00:16.539Z,99.99
2018-04-19T03:01:16.755Z,99.99
2018-04-19T03:02:16.774Z,99.99
2018-04-19T03:03:16.841Z,99.99
2018-04-19T03:04:16.570Z,99.99
2018-04-19T03:05:16.597Z,99.99
2018-04-19T03:06:16.789Z,99.99
2018-04-19T03:07:16.774Z,99.99
2018-04-19T03:08:17.108Z,99.99
2018-04-19T03:09:17.137Z,99.99
2018-04-19T03:10:17.154Z,99.99
2018-04-19T03:11:17.168Z,99.99
2018-04-19T03:12:17.612Z,99.99
2018-04-19T03:13:17.618Z,99.99
2018-04-19T03:14:17.818Z,99.99
2018-04-19T03:15:17.872Z,99.99
2018-04-19T03:16:17.853Z,99.99
2018-04-19T03:17:18.058Z,99.99
2018-04-19T03:18:18.058Z,99.99
2018-04-19T03:19:18.139Z,99.99
2018-04-19T03:20:18.023Z,99.99
2018-04-19T03:21:18.039Z,99.99
2018-04-19T03:22:18.747Z,99.99
2018-04-19T03:23:18.736Z,99.99
2018-04-19T03:24:18.523Z,99.99
2018-04-19T03:25:18.943Z,99.99
2018-04-19T03:26:18.999Z,99.99
2018-04-19T03:27:18.852Z,99.99
2018-04-19T03:28:19.325Z,99.99
2018-04-19T03:29:19.535Z,99.99
2018-04-19T03:30:19.538Z,99.99
2018-04-19T03:31:19.766Z,99.99
2018-04-19T03:32:19.749Z,99.99
2018-04-19T03:33:19.913Z,99.99
2018-04-19T03:34:20.600Z,99.99
2018-04-19T03:35:20.646Z,99.99
2018-04-19T03:36:20.351Z,99.99
2018-04-19T03:37:20.814Z,99.99
2018-04-19T03:38:21.082Z,99.99
2018-04-19T03:39:21.483Z,99.99
2018-04-19T03:40:21.921Z,99.99
2018-04-19T03:41:22.036Z,99.99
2018-04-19T03:42:21.745Z,99.99
2018-04-19T03:43:22.019Z,99.99
2018-04-19T03:44:21.767Z,99.99
2018-04-19T03:45:22.063Z,99.99
2018-04-19T03:46:22.555Z,99.99
2018-04-19T03:47:22.313Z,99.99
2018-04-19T03:48:22.574Z,99.99
2018-04-19T03:49:22.723Z,99.99
2018-04-19T03:50:22.601Z,99.99
2018-04-19T03:51:22.917Z,99.99
2018-04-19T03:52:22.972Z,99.99
2018-04-19T03:53:23.055Z,99.99
2018-04-19T03:54:23.108Z,99.99
2018-04-19T03:55:23.959Z,99.99
2018-04-19T03:56:23.714Z,99.99
2018-04-19T03:57:23.744Z,99.99
2018-04-19T03:58:23.773Z,99.99
2018-04-19T03:59:23.692Z,99.99
2018-04-19T04:00:23.994Z,99.99
2018-04-19T04:01:24.294Z,99.99
2018-04-19T04:02:24.406Z,99.99
2018-04-19T04:03:24.351Z,99.99
2018-04-19T04:04:24.090Z,99.99
2018-04-19T04:05:24.962Z,99.99
2018-04-19T04:06:24.987Z,99.99
2018-04-19T04:07:24.913Z,99.99
2018-04-19T04:08:24.672Z,99.99
2018-04-19T04:09:25.442Z,99.99
2018-04-19T04:10:25.488Z,99.99
2018-04-19T04:11:25.507Z,99.99
2018-04-19T04:12:25.688Z,99.99
2018-04-19T04:13:25.905Z,99.99
2018-04-19T04:14:25.928Z,99.99
2018-04-19T04:15:25.685Z,99.99
2018-04-19T04:16:26.018Z,99.99
2018-04-19T04:17:26.295Z,99.99
2018-04-19T04:18:26.044Z,99.99
2018-04-19T04:19:26.798Z,99.99
2018-04-19T04:20:27.106Z,99.99
2018-04-19T04:21:26.869Z,99.99
2018-04-19T04:22:26.880Z,99.99
2018-04-19T04:23:27.076Z,99.99
2018-04-19T04:24:27.376Z,99.99
2018-04-19T04:25:27.128Z,99.99
2018-04-19T04:26:27.424Z,99.99
2018-04-19T04:27:28.009Z,99.99
2018-04-19T04:28:28.053Z,99.99
2018-04-19T04:29:27.787Z,99.99
2018-04-19T04:30:28.260Z,99.99
2018-04-19T04:31:28.289Z,99.99
2018-04-19T04:32:28.544Z,99.99
2018-04-19T04:33:28.571Z,99.99
2018-04-19T04:34:28.329Z,99.99
2018-04-19T04:35:28.792Z,99.99
2018-04-19T04:36:28.545Z,99.99
2018-04-19T04:37:28.854Z,99.99
2018-04-19T04:38:29.059Z,99.99
2018-04-19T04:39:29.355Z,99.99
2018-04-19T04:40:29.807Z,99.99
2018-04-19T04:41:30.010Z,99.99
2018-04-19T04:42:30.373Z,99.99
2018-04-19T04:43:30.415Z,99.99
2018-04-19T04:44:30.459Z,99.99
2018-04-19T04:45:30.816Z,99.99
2018-04-19T04:46:31.192Z,99.99
2018-04-19T04:47:31.229Z,99.99
2018-04-19T04:48:31.446Z,99.99
2018-04-19T04:49:31.394Z,99.99
2018-04-19T04:50:31.678Z,99.99
2018-04-19T04:51:31.712Z,99.99
2018-04-19T04:52:31.477Z,99.99
2018-04-19T04:53:31.764Z,99.99
2018-04-19T04:54:31.801Z,99.99
2018-04-19T04:55:31.833Z,99.99
2018-04-19T04:56:31.888Z,99.99
2018-04-19T04:57:32.076Z,99.99
2018-04-19T04:58:32.020Z,99.99
2018-04-19T04:59:32.130Z,99.99
2018-04-19T05:00:32.303Z,99.99
2018-04-19T05:01:32.474Z,99.99
2018-04-19T05:02:32.475Z,99.99
2018-04-19T05:03:32.466Z,99.99
2018-04-19T05:04:32.597Z,99.99
2018-04-19T05:05:32.996Z,99.99
2018-04-19T05:06:33.114Z,99.99
2018-04-19T05:07:32.809Z,99.99
2018-04-19T05:08:32.810Z,99.99
2018-04-19T05:09:33.163Z,99.99
2018-04-19T05:10:33.277Z,99.99
2018-04-19T05:11:33.410Z,99.99
2018-04-19T05:12:34.127Z,99.99
2018-04-19T05:13:34.298Z,99.99
2018-04-19T05:14:34.183Z,99.99
2018-04-19T05:15:33.822Z,99.99
2018-04-19T05:16:33.959Z,99.99
2018-04-19T05:17:33.992Z,99.99
2018-04-19T05:18:34.664Z,99.99
2018-04-19T05:19:34.431Z,99.99
2018-04-19T05:20:34.715Z,99.99
2018-04-19T05:21:34.467Z,99.99
2018-04-19T05:22:34.533Z,99.99
2018-04-19T05:23:35.226Z,99.99
2018-04-19T05:24:35.340Z,99.99
2018-04-19T05:25:35.748Z,99.99
2018-04-19T05:26:35.774Z,99.99
2018-04-19T05:27:35.748Z,99.99
2018-04-19T05:28:36.262Z,99.99
2018-04-19T05:29:36.400Z,99.99
2018-04-19T05:30:37.116Z,99.99
2018-04-19T05:31:36.669Z,99.81
2018-04-19T05:32:36.619Z,98.33
2018-04-19T05:33:36.796Z,96.94
2018-04-19T05:34:37.674Z,96.47
2018-04-19T05:35:37.247Z,95.65
2018-04-19T05:36:37.162Z,93.11
2018-04-19T05:37:37.388Z,93.06
2018-04-19T05:38:37.299Z,92.3
2018-04-19T05:39:37.563Z,91.48
2018-04-19T05:40:37.595Z,90.28
2018-04-19T05:41:37.767Z,88.31
2018-04-19T05:42:37.664Z,86.72
2018-04-19T05:43:38.330Z,87.01
2018-04-19T05:44:38.817Z,85.89
2018-04-19T05:45:38.828Z,85.13
2018-04-19T05:46:38.892Z,84.69
2018-04-19T05:47:38.981Z,83.92
2018-04-19T05:48:39.025Z,84.5
2018-04-19T05:49:39.191Z,83.29
2018-04-19T05:50:39.438Z,83.39
2018-04-19T05:51:39.626Z,82.37
2018-04-19T05:52:39.750Z,81.73
2018-04-19T05:53:39.783Z,80.81
2018-04-19T05:54:39.819Z,79.5
2018-04-19T05:55:39.865Z,78.54
2018-04-19T05:56:40.968Z,77.03
2018-04-19T05:57:40.458Z,76.98
2018-04-19T05:58:40.885Z,75.09
2018-04-19T05:59:40.643Z,73.67
2018-04-19T06:00:40.699Z,72.71
2018-04-19T06:01:40.714Z,70.62
2018-04-19T06:02:40.737Z,70.17
2018-04-19T06:03:40.499Z,68.75
2018-04-19T06:04:40.943Z,69.08
2018-04-19T06:05:41.378Z,67.46
2018-04-19T06:06:41.848Z,66.82
2018-04-19T06:07:41.847Z,65.79
2018-04-19T06:08:42.083Z,64.47
2018-04-19T06:09:42.021Z,63.56
2018-04-19T06:10:42.407Z,62.52
2018-04-19T06:11:42.168Z,61.97
2018-04-19T06:12:42.657Z,60.86
2018-04-19T06:13:42.701Z,59.53
2018-04-19T06:14:42.739Z,57.9
2018-04-19T06:15:42.564Z,55.89
2018-04-19T06:16:42.972Z,56.09
2018-04-19T06:17:43.378Z,56.01
2018-04-19T06:18:43.421Z,55.26
2018-04-19T06:19:43.791Z,54.5
2018-04-19T06:20:43.247Z,52.58
2018-04-19T06:21:43.683Z,52.19
2018-04-19T06:22:44.131Z,51.63
2018-04-19T06:23:43.909Z,50.46
2018-04-19T06:24:43.961Z,50.26
2018-04-19T06:25:44.173Z,48.63
2018-04-19T06:26:43.968Z,49.19
2018-04-19T06:27:44.612Z,50.56
2018-04-19T06:28:44.417Z,51.04
2018-04-19T06:29:44.507Z,50.88
2018-04-19T06:30:44.538Z,50.51
2018-04-19T06:31:45.121Z,50.02
2018-04-19T06:32:45.382Z,49.55
2018-04-19T06:33:45.443Z,49.29
2018-04-19T06:34:45.366Z,48.14
2018-04-19T06:35:45.390Z,46.2
2018-04-19T06:36:45.139Z,45.72
2018-04-19T06:37:45.261Z,44.56
2018-04-19T06:38:45.347Z,44.27
2018-04-19T06:39:45.554Z,43.95
2018-04-19T06:40:45.352Z,43.54
2018-04-19T06:41:45.764Z,44.62
2018-04-19T06:42:45.113Z,45.5
2018-04-19T06:43:45.531Z,44.23
2018-04-19T06:44:44.908Z,44.1
2018-04-19T06:45:45.400Z,44.89
2018-04-19T06:46:45.788Z,44.69
2018-04-19T06:47:45.318Z,45.08
2018-04-19T06:48:45.889Z,45.01
2018-04-19T06:49:45.927Z,45.03
2018-04-19T06:50:45.944Z,44.46
2018-04-19T06:51:45.719Z,43.29
2018-04-19T06:52:45.442Z,44.29
2018-04-19T06:53:46.070Z,43.21
2018-04-19T06:54:45.790Z,41.66
2018-04-19T06:55:46.131Z,43.51
2018-04-19T06:56:46.158Z,44.12
2018-04-19T06:57:45.496Z,41.88
2018-04-19T06:58:46.310Z,41.66
2018-04-19T06:59:46.350Z,41.86
2018-04-19T07:00:46.409Z,42.41
2018-04-19T07:01:46.404Z,43.38
2018-04-19T07:02:45.872Z,42.43
2018-04-19T07:03:45.775Z,43.29
2018-04-19T07:04:46.159Z,43.58
2018-04-19T07:05:46.134Z,42.9
2018-04-19T07:06:46.522Z,42.13
2018-04-19T07:07:46.561Z,42.23
2018-04-19T07:08:47.031Z,41.86
2018-04-19T07:09:47.034Z,42.05
2018-04-19T07:10:47.075Z,42.05
2018-04-19T07:11:47.007Z,41.86
2018-04-19T07:12:47.563Z,42.55
2018-04-19T07:13:47.724Z,43.05
2018-04-19T07:14:48.355Z,41.61
2018-04-19T07:15:48.298Z,41.24
2018-04-19T07:16:48.443Z,40.09
2018-04-19T07:17:49.187Z,40.51
2018-04-19T07:18:49.192Z,39.54
2018-04-19T07:19:49.226Z,38.76
2018-04-19T07:20:49.424Z,38.76
2018-04-19T07:21:49.450Z,39.13
2018-04-19T07:22:50.182Z,39.23
2018-04-19T07:23:50.339Z,40
2018-04-19T07:24:50.798Z,39.72
2018-04-19T07:25:50.613Z,39.44
2018-04-19T07:26:50.853Z,38.76
2018-04-19T07:27:51.026Z,38.85
2018-04-19T07:28:51.065Z,38.97
2018-04-19T07:29:51.087Z,39.17
2018-04-19T07:30:51.253Z,38.87
2018-04-19T07:31:51.680Z,39.31
2018-04-19T07:32:52.093Z,40
2018-04-19T07:33:52.559Z,39.72
2018-04-19T07:34:52.725Z,38.56
2018-04-19T07:35:52.765Z,39.64
2018-04-19T07:36:52.804Z,39.54
2018-04-19T07:37:52.732Z,39.34
2018-04-19T07:38:53.163Z,39.31
2018-04-19T07:39:53.113Z,40.74
2018-04-19T07:40:53.127Z,40.56
2018-04-19T07:41:53.060Z,40.19
2018-04-19T07:42:53.383Z,40.37
2018-04-19T07:43:53.345Z,40.55
2018-04-19T07:44:53.286Z,40.48
2018-04-19T07:45:53.848Z,39.82
2018-04-19T07:46:54.308Z,38.87
2018-04-19T07:47:54.355Z,38.79
2018-04-19T07:48:54.242Z,38.73
2018-04-19T07:49:54.838Z,37.49
2018-04-19T07:50:54.861Z,36.42
2018-04-19T07:51:54.932Z,36.82
2018-04-19T07:52:54.972Z,36.34
2018-04-19T07:53:54.985Z,36.06
2018-04-19T07:54:55.034Z,36.36
2018-04-19T07:55:55.504Z,35.66
2018-04-19T07:56:55.239Z,36.34
2018-04-19T07:57:55.645Z,36.4
2018-04-19T07:58:55.583Z,37.74
2018-04-19T07:59:55.620Z,36.88
2018-04-19T08:00:55.652Z,37.05
2018-04-19T08:01:55.983Z,37.45
2018-04-19T08:02:56.397Z,37.53
2018-04-19T08:03:56.583Z,37.55
2018-04-19T08:04:56.457Z,37.93
2018-04-19T08:05:56.792Z,38.3
2018-04-19T08:06:57.020Z,38.18
2018-04-19T08:07:57.456Z,38.68
2018-04-19T08:08:58.517Z,39.03
2018-04-19T08:09:57.935Z,40.27
2018-04-19T08:10:58.368Z,40.27
2018-04-19T08:11:58.805Z,40.45
2018-04-19T08:12:58.974Z,40.47
2018-04-19T08:13:58.753Z,38.93
2018-04-19T08:14:59.168Z,38.97
2018-04-19T08:15:58.913Z,37.65
2018-04-19T08:16:59.403Z,36.32
2018-04-19T08:17:59.877Z,36.52
2018-04-19T08:18:59.808Z,36.63
2018-04-19T08:19:59.933Z,35.96
2018-04-19T08:21:00.658Z,36.14
2018-04-19T08:22:00.813Z,36.04
2018-04-19T08:23:01.195Z,35.09
2018-04-19T08:24:01.439Z,35.5
2018-04-19T08:25:01.803Z,35.22
2018-04-19T08:26:01.785Z,34.56
2018-04-19T08:27:01.482Z,34.08
2018-04-19T08:28:01.918Z,34.38
2018-04-19T08:29:02.090Z,34
2018-04-19T08:30:01.976Z,33.9
2018-04-19T08:31:02.342Z,34.08
2018-04-19T08:32:02.621Z,33.78
2018-04-19T08:33:02.714Z,33.97
2018-04-19T08:34:03.331Z,34.28
2018-04-19T08:35:03.368Z,34.2
2018-04-19T08:36:03.353Z,33.64
2018-04-19T08:37:03.499Z,32.56
2018-04-19T08:38:03.905Z,32.86
2018-04-19T08:39:03.962Z,33.14
2018-04-19T08:40:03.717Z,32.94
2018-04-19T08:41:04.202Z,33.12
2018-04-19T08:42:04.364Z,33.33
2018-04-19T08:43:04.830Z,32.93
2018-04-19T08:44:04.584Z,33.04
2018-04-19T08:45:04.790Z,33.14
2018-04-19T08:46:05.222Z,33.9
2018-04-19T08:47:05.520Z,34.45
2018-04-19T08:48:05.619Z,34.45
2018-04-19T08:49:06.070Z,34.56
2018-04-19T08:50:05.909Z,34.17
2018-04-19T08:51:05.933Z,34.34
2018-04-19T08:52:06.107Z,33.8
2018-04-19T08:53:06.180Z,33.01
2018-04-19T08:54:06.096Z,32.84
2018-04-19T08:55:06.397Z,32.08
2018-04-19T08:56:06.452Z,31.9
2018-04-19T08:57:06.496Z,31.21
2018-04-19T08:58:06.955Z,31.21
2018-04-19T08:59:06.976Z,32.08
2018-04-19T09:00:20.126Z,33.06
2018-04-19T09:01:20.275Z,32.08
2018-04-19T09:02:20.648Z,31.32
2018-04-19T09:03:21.019Z,31.03
2018-04-19T09:04:21.150Z,31.32
2018-04-19T09:05:21.494Z,31.29
2018-04-19T09:06:21.242Z,32.54
2018-04-19T09:07:21.691Z,31.98
2018-04-19T09:08:21.705Z,31.29
2018-04-19T09:09:21.750Z,31.58
2018-04-19T09:10:21.795Z,30.62
2018-04-19T09:11:21.959Z,31.3
2018-04-19T09:12:21.725Z,31.68
2018-04-19T09:13:22.349Z,31.7
2018-04-19T09:14:22.277Z,31.63
2018-04-19T09:15:22.706Z,30.65
2018-04-19T09:16:22.874Z,30.4
2018-04-19T09:17:23.287Z,29.43
2018-04-19T09:18:23.326Z,29.8
2018-04-19T09:19:23.488Z,29.69
2018-04-19T09:20:23.527Z,30.08
2018-04-19T09:21:23.577Z,30.25
2018-04-19T09:22:23.989Z,30.13
2018-04-19T09:23:24.163Z,30.45
2018-04-19T09:24:24.315Z,29.88
2018-04-19T09:25:24.794Z,29.5
2018-04-19T09:26:24.825Z,29.58
2018-04-19T09:27:24.871Z,30.07
2018-04-19T09:28:24.993Z,30.16
2018-04-19T09:29:25.114Z,30.18
2018-04-19T09:30:25.269Z,29.69
2018-04-19T09:31:25.383Z,29.44
2018-04-19T09:32:26.096Z,29.85
2018-04-19T09:33:25.682Z,29.86
2018-04-19T09:34:26.488Z,28.98
2018-04-19T09:35:25.952Z,28
2018-04-19T09:36:26.239Z,28.45
2018-04-19T09:37:27.105Z,28.94
2018-04-19T09:38:26.872Z,29.39
2018-04-19T09:39:26.595Z,30.15
2018-04-19T09:40:26.909Z,30.05
2018-04-19T09:41:27.187Z,30.46
2018-04-19T09:42:26.961Z,29.9
2018-04-19T09:43:27.864Z,29.43
2018-04-19T09:44:27.290Z,28.55
2018-04-19T09:45:27.461Z,28.77
2018-04-19T09:46:27.497Z,29.17
2018-04-19T09:47:27.390Z,28.37
2018-04-19T09:48:28.065Z,29.15
2018-04-19T09:49:27.738Z,28.64
2018-04-19T09:50:27.781Z,29.39
2018-04-19T09:51:27.564Z,30.62
2018-04-19T09:52:28.238Z,31.24
2018-04-19T09:53:28.144Z,32.1
2018-04-19T09:54:28.147Z,32.4
2018-04-19T09:55:28.601Z,32.14
2018-04-19T09:56:29.013Z,31.18
2018-04-19T09:57:29.377Z,30.8
2018-04-19T09:58:29.487Z,30.75
2018-04-19T09:59:29.423Z,30.28
2018-04-19T10:00:29.479Z,29.33
2018-04-19T10:01:29.522Z,28.54
2018-04-19T10:02:29.709Z,28.54
2018-04-19T10:03:30.027Z,29.41
2018-04-19T10:04:30.055Z,29.27
2018-04-19T10:05:30.266Z,30.41
2018-04-19T10:06:30.357Z,30.47
2018-04-19T10:07:30.063Z,30.59
2018-04-19T10:08:30.121Z,30.68
2018-04-19T10:09:30.142Z,30.68
2018-04-19T10:10:30.558Z,30.53
2018-04-19T10:11:30.561Z,31.14
2018-04-19T10:12:30.639Z,31.15
2018-04-19T10:13:30.630Z,30.99
2018-04-19T10:14:30.642Z,30.32
2018-04-19T10:15:30.390Z,30.33
2018-04-19T10:16:30.890Z,30.05
2018-04-19T10:17:30.933Z,29.58
2018-04-19T10:18:30.685Z,29.68
2018-04-19T10:19:31.438Z,29
2018-04-19T10:20:31.207Z,29.1
2018-04-19T10:21:31.731Z,29.39
2018-04-19T10:22:31.555Z,29.41
2018-04-19T10:23:31.352Z,28.91
2018-04-19T10:24:31.796Z,29.41
2018-04-19T10:25:31.768Z,29.8
2018-04-19T10:26:31.957Z,29.78
2018-04-19T10:27:32.065Z,29.48
2018-04-19T10:28:32.305Z,29.67
2018-04-19T10:29:32.354Z,29.85
2018-04-19T10:30:32.395Z,30.22
2018-04-19T10:31:32.426Z,31.85
2018-04-19T10:32:32.495Z,31.74
2018-04-19T10:33:32.507Z,31.02
2018-04-19T10:34:33.034Z,31.31
2018-04-19T10:35:33.028Z,32.09
2018-04-19T10:36:33.074Z,32.18
2018-04-19T10:37:33.124Z,32.18
2018-04-19T10:38:33.589Z,32.3
2018-04-19T10:39:33.375Z,32.18
2018-04-19T10:40:33.389Z,33.42
2018-04-19T10:41:33.885Z,33.89
2018-04-19T10:42:33.654Z,34
2018-04-19T10:43:33.982Z,32.24
2018-04-19T10:44:34.453Z,32.43
2018-04-19T10:45:34.206Z,32.92
2018-04-19T10:46:34.253Z,33.7
2018-04-19T10:47:34.571Z,32.83
2018-04-19T10:48:34.608Z,33.04
2018-04-19T10:49:34.648Z,32.76
2018-04-19T10:50:34.700Z,32.98
2018-04-19T10:51:34.725Z,32.39
2018-04-19T10:52:35.055Z,31.88
2018-04-19T10:53:35.351Z,32.75
2018-04-19T10:54:35.349Z,34.1
2018-04-19T10:55:35.839Z,34.18
2018-04-19T10:56:35.870Z,34.66
2018-04-19T10:57:36.127Z,34.76
2018-04-19T10:58:36.162Z,34.27
2018-04-19T10:59:36.353Z,34.94
2018-04-19T11:00:36.926Z,34.91
2018-04-19T11:01:37.095Z,35.84
2018-04-19T11:02:37.417Z,35.82
2018-04-19T11:03:37.627Z,36.71
2018-04-19T11:04:37.776Z,37.67
2018-04-19T11:05:37.883Z,37.57
2018-04-19T11:06:37.850Z,37.38
2018-04-19T11:07:38.270Z,37.77
2018-04-19T11:08:38.772Z,38.54
2018-04-19T11:09:38.704Z,39.21
2018-04-19T11:10:39.107Z,39.31
2018-04-19T11:11:38.970Z,38.31
2018-04-19T11:12:39.643Z,38.85
2018-04-19T11:13:39.705Z,39.92
2018-04-19T11:14:39.729Z,39.61
2018-04-19T11:15:40.151Z,40.33
2018-04-19T11:16:40.306Z,41
2018-04-19T11:17:40.446Z,41.66
2018-04-19T11:18:40.867Z,41.91
2018-04-19T11:19:41.153Z,43.26
2018-04-19T11:20:41.573Z,45.21
2018-04-19T11:21:41.604Z,45.02
2018-04-19T11:22:41.362Z,43.87
2018-04-19T11:23:42.034Z,44.45
2018-04-19T11:24:41.791Z,43.96
2018-04-19T11:25:42.114Z,44.35
2018-04-19T11:26:42.149Z,43.28
2018-04-19T11:27:42.298Z,43.79
2018-04-19T11:28:42.604Z,44.96
2018-04-19T11:29:42.649Z,44.18
2018-04-19T11:30:42.510Z,45.14
2018-04-19T11:31:42.896Z,45.14
2018-04-19T11:32:43.225Z,46.01
2018-04-19T11:33:43.653Z,46.6
2018-04-19T11:34:43.812Z,46.6
2018-04-19T11:35:44.214Z,45.31
2018-04-19T11:36:44.755Z,45.09
2018-04-19T11:37:44.440Z,45.85
2018-04-19T11:38:44.904Z,46
2018-04-19T11:39:44.920Z,46.47
2018-04-19T11:40:45.059Z,46.83
2018-04-19T11:41:44.810Z,47.32
2018-04-19T11:42:45.129Z,47.59
2018-04-19T11:43:45.287Z,48.15
2018-04-19T11:44:45.438Z,49.12
2018-04-19T11:45:45.615Z,49.78
2018-04-19T11:46:45.938Z,50.34
2018-04-19T11:47:45.775Z,51.38
2018-04-19T11:48:45.848Z,51.16
2018-04-19T11:49:45.901Z,50.96
2018-04-19T11:50:46.209Z,52.3
2018-04-19T11:51:46.383Z,51.81
2018-04-19T11:52:46.768Z,52.47
2018-04-19T11:53:46.527Z,52.86
2018-04-19T11:54:47.180Z,52.73
2018-04-19T11:55:47.213Z,53.12
2018-04-19T11:56:47.249Z,53.09
2018-04-19T11:57:47.291Z,53.77
2018-04-19T11:58:47.681Z,53.58
2018-04-19T11:59:47.434Z,54.64
2018-04-19T12:00:48.003Z,54.26
2018-04-19T12:01:48.108Z,53.97
2018-04-19T12:02:49.201Z,53.97
2018-04-19T12:03:48.853Z,54.16
2018-04-19T12:04:48.161Z,55.13
2018-04-19T12:05:48.697Z,54.45
2018-04-19T12:06:48.164Z,55.22
2018-04-19T12:07:48.379Z,54.55
2018-04-19T12:08:48.495Z,53.58
2018-04-19T12:09:48.495Z,53.77
2018-04-19T12:10:48.920Z,53.87
2018-04-19T12:11:48.686Z,53.87
2018-04-19T12:12:48.982Z,54.03
2018-04-19T12:13:49.096Z,55.1
2018-04-19T12:14:49.155Z,56.46
2018-04-19T12:15:49.272Z,54.62
2018-04-19T12:16:49.320Z,54.43
2018-04-19T12:17:49.110Z,54.03
2018-04-19T12:18:49.209Z,54.43
2018-04-19T12:19:49.037Z,53.94
2018-04-19T12:20:49.315Z,54.13
2018-04-19T12:21:49.769Z,54.11
2018-04-19T12:22:49.481Z,55.07
2018-04-19T12:23:49.986Z,54.88
2018-04-19T12:24:50.216Z,55.53
2018-04-19T12:25:50.270Z,54.47
2018-04-19T12:26:50.294Z,55.05
2018-04-19T12:27:50.332Z,55.27
2018-04-19T12:28:50.104Z,55.85
2018-04-19T12:29:50.406Z,55.94
2018-04-19T12:30:50.465Z,56.72
2018-04-19T12:31:50.482Z,57.2
2018-04-19T12:32:50.548Z,56.82
2018-04-19T12:33:51.010Z,56.92
2018-04-19T12:34:50.951Z,55.46
2018-04-19T12:35:51.099Z,54.98
2018-04-19T12:36:51.651Z,55.56
2018-04-19T12:37:51.386Z,54.98
2018-04-19T12:38:51.713Z,54.85
2018-04-19T12:39:51.875Z,54.66
2018-04-19T12:40:52.188Z,54.27
2018-04-19T12:41:52.646Z,54.17
2018-04-19T12:42:52.666Z,53.99
2018-04-19T12:43:52.440Z,54.17
2018-04-19T12:44:52.561Z,54.85
2018-04-19T12:45:53.071Z,55.92
2018-04-19T12:46:53.395Z,56.11
2018-04-19T12:47:53.377Z,57.28
2018-04-19T12:48:53.804Z,55.05
2018-04-19T12:49:54.797Z,55.73
2018-04-19T12:50:54.492Z,56.11
2018-04-19T12:51:54.398Z,57.18
2018-04-19T12:52:54.860Z,56.02
2018-04-19T12:53:55.169Z,55.53
2018-04-19T12:54:55.148Z,55.05
2018-04-19T12:55:54.922Z,55.15
2018-04-19T12:56:55.309Z,54.95